createdAt,value
2023-03-02T00:00:17.845Z,69.25
2023-03-02T00:02:20.634Z,69.48
2023-03-02T00:04:25.969Z,69.08
2023-03-02T00:06:31.001Z,69.58
2023-03-02T00:08:34.425Z,69.61
2023-03-02T00:10:37.301Z,70.05
2023-03-02T00:12:38.967Z,69.85
2023-03-02T00:14:40.585Z,69.50
2023-03-02T00:16:42.720Z,69.51
2023-03-02T00:18:44.501Z,70.22
2023-03-02T00:20:46.109Z,69.98
2023-03-02T00:22:49.056Z,70.28
2023-03-02T00:24:50.865Z,69.80
2023-03-02T00:26:54.593Z,69.68
2023-03-02T00:28:56.479Z,69.57
2023-03-02T00:30:58.541Z,70.10
2023-03-02T00:33:00.168Z,70.17
2023-03-02T00:35:01.785Z,70.18
2023-03-02T00:37:03.422Z,69.84
2023-03-02T00:39:06.778Z,70.33
2023-03-02T00:41:08.376Z,69.74
2023-03-02T00:43:09.965Z,70.10
2023-03-02T00:45:12.119Z,70.53
2023-03-02T00:47:13.981Z,70.36
2023-03-02T00:49:15.556Z,70.33
2023-03-02T00:51:18.604Z,70.38
2023-03-02T00:53:20.225Z,70.44
2023-03-02T00:55:23.150Z,71.04
2023-03-02T00:57:25.432Z,70.52
2023-03-02T00:59:27.267Z,70.11
2023-03-02T01:01:28.874Z,70.91
2023-03-02T01:03:30.546Z,70.33
2023-03-02T01:05:36.525Z,70.35
2023-03-02T01:07:38.118Z,70.73
2023-03-02T01:09:41.455Z,70.87
2023-03-02T01:11:44.586Z,70.25
2023-03-02T01:13:46.712Z,70.32
2023-03-02T01:15:48.740Z,70.05
2023-03-02T01:17:50.824Z,70.79
2023-03-02T01:19:53.246Z,70.33
2023-03-02T01:21:54.842Z,70.73
2023-03-02T01:23:56.679Z,70.46
2023-03-02T01:25:58.689Z,70.46
2023-03-02T01:28:01.886Z,70.38
2023-03-02T01:30:04.238Z,70.83
2023-03-02T01:32:06.355Z,70.47
2023-03-02T01:34:08.984Z,70.51
2023-03-02T01:36:10.547Z,70.82
2023-03-02T01:38:12.585Z,70.61
2023-03-02T01:40:14.557Z,71.03
2023-03-02T01:42:16.436Z,71.17
2023-03-02T01:44:41.288Z,70.18
2023-03-02T01:46:42.919Z,70.41
2023-03-02T01:48:48.685Z,71.25
2023-03-02T01:50:50.754Z,70.60
2023-03-02T01:52:55.324Z,70.73
2023-03-02T01:55:00.356Z,71.14
2023-03-02T01:57:04.590Z,71.46
2023-03-02T01:59:12.245Z,71.10
2023-03-02T02:01:15.877Z,71.06
2023-03-02T02:03:23.330Z,70.89
2023-03-02T02:05:25.513Z,70.68
2023-03-02T02:07:27.384Z,70.98
2023-03-02T02:09:33.400Z,70.89
2023-03-02T02:11:35.098Z,71.68
2023-03-02T02:13:36.931Z,71.59
2023-03-02T02:15:41.093Z,71.26
2023-03-02T02:17:44.611Z,71.04
2023-03-02T02:20:12.920Z,70.41
2023-03-02T02:22:18.045Z,71.29
2023-03-02T02:24:25.613Z,71.37
2023-03-02T02:26:32.864Z,71.13
2023-03-02T02:28:40.517Z,71.66
2023-03-02T02:30:43.699Z,71.55
2023-03-02T02:32:48.537Z,72.18
2023-03-02T02:34:56.925Z,71.43
2023-03-02T02:37:03.807Z,72.34
2023-03-02T02:39:08.753Z,71.99
2023-03-02T02:41:18.972Z,71.52
2023-03-02T02:43:23.353Z,71.89
2023-03-02T02:45:27.237Z,72.30
2023-03-02T02:47:29.497Z,72.00
2023-03-02T02:49:35.306Z,72.26
2023-03-02T02:51:37.208Z,72.65
2023-03-02T02:53:43.995Z,71.43
2023-03-02T02:55:48.649Z,71.80
2023-03-02T02:57:52.193Z,72.23
2023-03-02T02:59:58.825Z,71.93
2023-03-02T03:02:00.774Z,72.24
2023-03-02T03:04:05.045Z,72.44
2023-03-02T03:06:09.709Z,72.27
2023-03-02T03:08:49.618Z,71.47
2023-03-02T03:10:51.612Z,72.47
2023-03-02T03:12:53.395Z,71.89
2023-03-02T03:14:57.335Z,72.81
2023-03-02T03:16:59.244Z,72.37
2023-03-02T03:19:07.016Z,71.95
2023-03-02T03:21:08.732Z,72.88
2023-03-02T03:23:10.341Z,72.37
2023-03-02T03:25:12.336Z,71.99
2023-03-02T03:27:16.289Z,72.11
2023-03-02T03:29:18.848Z,72.42
2023-03-02T03:31:21.892Z,72.93
2023-03-02T03:33:24.058Z,72.75
2023-03-02T03:35:25.906Z,72.14
2023-03-02T03:37:27.420Z,72.41
2023-03-02T03:39:29.767Z,72.81
2023-03-02T03:41:31.570Z,72.29
2023-03-02T03:43:33.568Z,72.15
2023-03-02T03:45:35.705Z,72.50
2023-03-02T03:47:39.243Z,72.81
2023-03-02T03:49:40.895Z,72.12
2023-03-02T03:51:42.472Z,72.22
2023-03-02T03:53:44.258Z,72.69
2023-03-02T03:55:45.909Z,72.58
2023-03-02T03:57:47.550Z,72.10
2023-03-02T03:59:49.322Z,72.44
2023-03-02T04:01:52.927Z,72.84
2023-03-02T04:03:56.211Z,72.39
2023-03-02T04:05:58.091Z,72.68
2023-03-02T04:07:59.803Z,72.30
2023-03-02T04:10:02.556Z,72.72
2023-03-02T04:12:05.516Z,72.45
2023-03-02T04:14:08.305Z,72.32
2023-03-02T04:16:10.385Z,72.10
2023-03-02T04:18:12.223Z,72.53
2023-03-02T04:20:19.111Z,72.74
2023-03-02T04:22:21.400Z,72.71
2023-03-02T04:24:24.227Z,72.63
2023-03-02T04:26:25.864Z,72.61
2023-03-02T04:28:27.624Z,72.02
2023-03-02T04:30:29.706Z,72.32
2023-03-02T04:32:32.035Z,72.76
2023-03-02T04:34:34.431Z,72.84
2023-03-02T04:36:39.579Z,72.54
2023-03-02T04:38:41.474Z,72.56
2023-03-02T04:40:43.288Z,72.29
2023-03-02T04:42:45.161Z,72.02
2023-03-02T04:44:46.777Z,72.16
2023-03-02T04:46:50.012Z,73.07
2023-03-02T04:48:51.968Z,72.31
2023-03-02T04:50:53.809Z,72.84
2023-03-02T04:52:56.872Z,72.88
2023-03-02T04:54:58.533Z,72.56
2023-03-02T04:57:00.231Z,72.27
2023-03-02T04:59:01.888Z,72.59
2023-03-02T05:01:03.681Z,72.51
2023-03-02T05:03:06.833Z,72.31
2023-03-02T05:05:15.604Z,72.19
2023-03-02T05:07:17.343Z,72.53
2023-03-02T05:09:21.247Z,72.86
2023-03-02T05:11:23.020Z,72.76
2023-03-02T05:13:24.748Z,72.52
2023-03-02T05:15:29.383Z,72.87
2023-03-02T05:17:30.962Z,72.77
2023-03-02T05:19:32.561Z,72.80
2023-03-02T05:21:34.643Z,72.87
2023-03-02T05:23:36.366Z,72.62
2023-03-02T05:25:39.816Z,73.00
2023-03-02T05:27:41.461Z,72.49
2023-03-02T05:29:43.422Z,72.57
2023-03-02T05:31:46.310Z,72.52
2023-03-02T05:33:48.235Z,72.70
2023-03-02T05:35:50.340Z,72.74
2023-03-02T05:37:52.040Z,72.36
2023-03-02T05:39:54.953Z,72.82
2023-03-02T05:41:58.259Z,72.78
2023-03-02T05:44:00.244Z,72.18
2023-03-02T05:46:02.248Z,72.26
2023-03-02T05:48:05.024Z,72.71
2023-03-02T05:50:07.787Z,73.00
2023-03-02T05:52:10.392Z,72.28
2023-03-02T05:54:11.904Z,72.36
2023-03-02T05:56:13.864Z,72.74
2023-03-02T05:58:19.917Z,72.79
2023-03-02T06:00:22.285Z,72.78
2023-03-02T06:02:24.013Z,72.52
2023-03-02T06:04:25.790Z,72.62
2023-03-02T06:06:27.437Z,72.55
2023-03-02T06:08:29.011Z,72.17
2023-03-02T06:10:30.775Z,72.14
2023-03-02T06:12:33.109Z,72.64
2023-03-02T06:14:36.710Z,72.47
2023-03-02T06:16:40.593Z,72.56
2023-03-02T06:18:42.304Z,72.52
2023-03-02T06:20:43.887Z,72.79
2023-03-02T06:22:47.108Z,72.75
2023-03-02T06:24:49.069Z,72.91
2023-03-02T06:26:53.087Z,72.83
2023-03-02T06:28:54.798Z,72.55
2023-03-02T06:30:59.477Z,72.53
2023-03-02T06:33:01.312Z,72.50
2023-03-02T06:35:04.358Z,72.70
2023-03-02T06:37:06.048Z,72.48
2023-03-02T06:39:10.103Z,72.48
2023-03-02T06:41:11.906Z,72.25
2023-03-02T06:43:13.827Z,72.21
2023-03-02T06:45:15.736Z,72.99
2023-03-02T06:47:18.885Z,72.63
2023-03-02T06:49:20.632Z,72.56
2023-03-02T06:51:22.519Z,72.21
2023-03-02T06:53:24.578Z,72.29
2023-03-02T06:55:26.544Z,72.41
2023-03-02T06:57:30.640Z,72.41
2023-03-02T06:59:32.648Z,73.07
2023-03-02T07:01:35.035Z,72.61
2023-03-02T07:03:38.597Z,72.73
2023-03-02T07:05:40.634Z,72.60
2023-03-02T07:07:42.592Z,72.75
2023-03-02T07:09:44.436Z,72.00
2023-03-02T07:11:46.247Z,72.49
2023-03-02T07:13:48.067Z,72.20
2023-03-02T07:15:49.994Z,72.36
2023-03-02T07:17:51.978Z,71.85
2023-03-02T07:19:55.504Z,72.26
2023-03-02T07:21:57.287Z,72.43
2023-03-02T07:23:59.169Z,72.18
2023-03-02T07:26:01.424Z,72.07
2023-03-02T07:28:04.314Z,72.64
2023-03-02T07:30:07.526Z,72.45
2023-03-02T07:32:12.087Z,72.54
2023-03-02T07:34:14.273Z,72.58
2023-03-02T07:36:17.673Z,71.98
2023-03-02T07:38:19.424Z,72.35
2023-03-02T07:40:21.016Z,72.72
2023-03-02T07:42:23.208Z,72.10
2023-03-02T07:44:24.833Z,72.63
2023-03-02T07:46:26.769Z,72.45
2023-03-02T07:48:28.394Z,72.41
2023-03-02T07:50:30.229Z,72.31
2023-03-02T07:52:33.438Z,72.45
2023-03-02T07:54:35.077Z,72.54
2023-03-02T07:56:37.114Z,72.68
2023-03-02T07:58:38.835Z,72.35
2023-03-02T08:00:42.641Z,72.58
2023-03-02T08:02:44.760Z,72.82
2023-03-02T08:04:47.952Z,72.04
2023-03-02T08:06:49.600Z,71.75
2023-03-02T08:08:53.563Z,72.04
2023-03-02T08:10:55.050Z,72.82
2023-03-02T08:12:56.942Z,72.17
2023-03-02T08:14:58.485Z,72.11
2023-03-02T08:17:00.155Z,72.25
2023-03-02T08:19:01.741Z,71.74
2023-03-02T08:21:03.989Z,71.33
2023-03-02T08:23:05.696Z,71.54
2023-03-02T08:25:10.199Z,71.92
2023-03-02T08:27:13.700Z,71.21
2023-03-02T08:29:15.507Z,71.57
2023-03-02T08:31:17.246Z,71.81
2023-03-02T08:33:19.168Z,71.84
2023-03-02T08:35:20.859Z,71.80
2023-03-02T08:37:22.589Z,71.44
2023-03-02T08:39:24.335Z,71.46
2023-03-02T08:41:27.585Z,71.71
2023-03-02T08:43:29.698Z,71.54
2023-03-02T08:45:31.450Z,70.50
2023-03-02T08:47:33.095Z,70.94
2023-03-02T08:49:35.059Z,71.16
2023-03-02T08:51:36.718Z,70.36
2023-03-02T08:53:40.992Z,71.25
2023-03-02T08:55:42.864Z,70.63
2023-03-02T08:57:45.979Z,71.11
2023-03-02T08:59:47.528Z,71.04
2023-03-02T09:01:49.370Z,71.17
2023-03-02T09:03:51.814Z,70.92
2023-03-02T09:05:53.624Z,70.80
2023-03-02T09:07:55.344Z,70.69
2023-03-02T09:09:57.072Z,70.58
2023-03-02T09:11:58.873Z,70.81
2023-03-02T09:14:02.420Z,70.40
2023-03-02T09:16:04.828Z,70.38
2023-03-02T09:18:06.649Z,70.15
2023-03-02T09:20:10.065Z,70.49
2023-03-02T09:22:11.800Z,69.77
2023-03-02T09:24:13.954Z,69.46
2023-03-02T09:26:15.951Z,69.61
2023-03-02T09:28:18.610Z,70.38
2023-03-02T09:30:21.903Z,69.60
2023-03-02T09:32:24.686Z,70.13
2023-03-02T09:34:26.452Z,68.33
2023-03-02T09:36:28.511Z,69.23
2023-03-02T09:38:30.161Z,68.76
2023-03-02T09:40:38.763Z,69.00
2023-03-02T09:43:00.689Z,68.54
2023-03-02T09:45:15.051Z,69.07
2023-03-02T09:47:35.520Z,69.13
2023-03-02T09:49:52.050Z,68.47
2023-03-02T09:52:08.910Z,69.16
2023-03-02T09:54:13.185Z,68.59
2023-03-02T09:56:17.970Z,68.10
2023-03-02T09:58:23.385Z,68.22
2023-03-02T10:00:29.054Z,68.62
2023-03-02T10:02:37.623Z,68.05
2023-03-02T10:04:44.765Z,68.33
2023-03-02T10:06:46.813Z,68.88
2023-03-02T10:08:48.579Z,68.68
2023-03-02T10:10:58.048Z,68.75
2023-03-02T10:13:11.000Z,68.29
2023-03-02T10:15:16.855Z,67.45
2023-03-02T10:17:40.002Z,67.75
2023-03-02T10:19:46.828Z,67.99
2023-03-02T10:21:54.204Z,67.51
2023-03-02T10:24:03.779Z,67.75
2023-03-02T10:26:18.037Z,67.33
2023-03-02T10:28:22.063Z,66.82
2023-03-02T10:30:28.710Z,67.08
2023-03-02T10:32:33.245Z,66.67
2023-03-02T10:34:38.464Z,67.32
2023-03-02T10:36:43.903Z,67.24
2023-03-02T10:38:45.681Z,67.13
2023-03-02T10:40:49.273Z,66.58
2023-03-02T10:42:51.994Z,66.86
2023-03-02T10:45:02.341Z,66.53
2023-03-02T10:47:05.062Z,66.80
2023-03-02T10:49:25.468Z,66.69
2023-03-02T10:51:30.509Z,67.63
2023-03-02T10:53:32.131Z,66.67
2023-03-02T10:55:34.669Z,66.84
2023-03-02T10:57:38.267Z,66.65
2023-03-02T10:59:44.722Z,65.81
2023-03-02T11:01:58.611Z,66.30
2023-03-02T11:04:02.123Z,66.83
2023-03-02T11:06:17.606Z,66.16
2023-03-02T11:08:23.383Z,66.50
2023-03-02T11:10:27.768Z,66.81
2023-03-02T11:12:31.602Z,67.21
2023-03-02T11:14:33.247Z,65.84
2023-03-02T11:16:35.034Z,66.65
2023-03-02T11:18:40.091Z,66.13
2023-03-02T11:20:45.496Z,66.23
2023-03-02T11:22:57.200Z,66.24
2023-03-02T11:25:05.777Z,65.76
2023-03-02T11:27:15.150Z,65.64
2023-03-02T11:29:34.549Z,65.52
2023-03-02T11:31:43.470Z,65.44
2023-03-02T11:34:01.869Z,65.80
2023-03-02T11:36:09.256Z,63.79
2023-03-02T11:38:17.518Z,63.76
2023-03-02T11:40:24.954Z,63.61
2023-03-02T11:42:31.172Z,63.31
2023-03-02T11:44:32.821Z,64.25
2023-03-02T11:46:35.823Z,64.46
2023-03-02T11:48:42.874Z,64.78
2023-03-02T11:50:56.125Z,64.03
2023-03-02T11:53:01.068Z,63.00
2023-03-02T11:55:06.615Z,63.24
2023-03-02T11:57:20.685Z,62.86
2023-03-02T11:59:25.758Z,61.32
2023-03-02T12:01:30.928Z,61.42
2023-03-02T12:23:25.103Z,62.47
2023-03-02T12:25:38.949Z,62.13
2023-03-02T12:27:40.738Z,59.82
2023-03-02T12:29:44.757Z,58.29
2023-03-02T12:31:49.274Z,59.36
2023-03-02T12:33:52.621Z,57.34
2023-03-02T12:36:04.583Z,58.92
2023-03-02T12:38:26.941Z,58.70
2023-03-02T12:40:39.506Z,57.29
2023-03-02T12:42:50.606Z,57.21
2023-03-02T12:45:01.383Z,57.35
2023-03-02T12:47:07.765Z,56.72
2023-03-02T12:49:34.626Z,58.03
2023-03-02T12:51:48.102Z,57.50
2023-03-02T12:54:02.739Z,57.76
2023-03-02T12:56:04.773Z,55.49
2023-03-02T12:58:17.560Z,57.01
2023-03-02T13:00:21.945Z,55.39
2023-03-02T13:02:26.320Z,54.69
2023-03-02T13:04:27.948Z,54.54
2023-03-02T13:06:31.959Z,55.08
2023-03-02T13:08:34.352Z,54.50
2023-03-02T13:10:40.322Z,54.62
2023-03-02T13:12:45.281Z,54.67
2023-03-02T13:14:52.363Z,55.03
2023-03-02T13:16:57.034Z,54.62
2023-03-02T13:19:01.286Z,53.98
2023-03-02T13:21:05.422Z,53.13
2023-03-02T13:23:07.239Z,53.26
2023-03-02T13:25:22.575Z,55.09
2023-03-02T13:27:25.930Z,53.14
2023-03-02T13:29:29.047Z,52.76
2023-03-02T13:31:31.133Z,52.72
2023-03-02T13:33:35.277Z,51.88
2023-03-02T13:35:36.974Z,52.46
2023-03-02T13:37:40.348Z,52.78
2023-03-02T13:39:42.188Z,52.02
2023-03-02T13:41:53.164Z,53.82
2023-03-02T13:43:57.467Z,52.25
2023-03-02T13:46:01.021Z,51.75
2023-03-02T13:48:14.049Z,53.66
2023-03-02T13:50:20.978Z,52.84
2023-03-02T13:52:27.793Z,53.38
2023-03-02T13:54:32.015Z,52.23
2023-03-02T13:56:36.608Z,52.62
2023-03-02T13:58:40.233Z,53.23
2023-03-02T14:00:43.513Z,51.97
2023-03-02T14:02:45.604Z,52.44
2023-03-02T14:04:47.380Z,53.51
2023-03-02T14:06:49.111Z,52.76
2023-03-02T14:08:50.847Z,52.92
2023-03-02T14:10:55.095Z,53.32
2023-03-02T14:13:01.379Z,53.43
2023-03-02T14:15:04.863Z,53.19
2023-03-02T14:17:14.351Z,53.89
2023-03-02T14:19:16.067Z,53.04
2023-03-02T14:21:20.085Z,53.11
2023-03-02T14:23:22.049Z,53.80
2023-03-02T14:25:23.599Z,53.87
2023-03-02T14:27:29.252Z,54.03
2023-03-02T14:29:33.173Z,53.78
2023-03-02T14:31:35.515Z,53.26
2023-03-02T14:33:38.766Z,54.04
2023-03-02T14:35:40.604Z,54.10
2023-03-02T14:37:45.901Z,53.73
2023-03-02T14:39:49.872Z,53.82
2023-03-02T14:48:24.915Z,54.21
2023-03-02T14:50:26.718Z,53.45
2023-03-02T15:04:44.373Z,53.96
2023-03-02T15:06:46.370Z,53.54
2023-03-02T15:08:48.008Z,53.83
2023-03-02T15:10:50.636Z,53.52
2023-03-02T15:12:52.688Z,53.82
2023-03-02T15:14:54.228Z,53.14
2023-03-02T15:16:55.745Z,53.58
2023-03-02T15:18:58.913Z,54.00
2023-03-02T15:21:02.332Z,53.49
2023-03-02T15:23:04.154Z,53.49
2023-03-02T15:25:06.449Z,53.46
2023-03-02T15:27:08.313Z,53.44
2023-03-02T15:29:10.368Z,53.78
2023-03-02T15:31:13.740Z,54.38
2023-03-02T15:33:15.305Z,53.99
2023-03-02T15:35:17.473Z,54.37
2023-03-02T15:37:20.594Z,54.67
2023-03-02T15:39:22.582Z,53.70
2023-03-02T15:41:24.138Z,53.91
2023-03-02T15:43:25.948Z,53.89
2023-03-02T15:45:27.790Z,53.84
2023-03-02T15:47:29.448Z,53.87
2023-03-02T15:49:31.146Z,53.97
2023-03-02T15:51:32.818Z,53.72
2023-03-02T15:53:38.456Z,54.42
2023-03-02T15:55:40.701Z,54.61
2023-03-02T15:57:42.471Z,54.01
2023-03-02T16:06:35.390Z,54.07
2023-03-02T16:08:38.863Z,54.73
2023-03-02T16:10:41.056Z,54.72
2023-03-02T16:12:42.887Z,55.44
2023-03-02T16:14:44.388Z,55.54
2023-03-02T16:16:46.583Z,55.36
2023-03-02T16:18:51.413Z,55.15
2023-03-02T16:20:53.197Z,55.63
2023-03-02T16:22:54.950Z,55.55
2023-03-02T16:24:58.308Z,55.63
2023-03-02T16:26:59.803Z,56.41
2023-03-02T16:29:01.798Z,56.19
2023-03-02T16:31:04.995Z,56.39
2023-03-02T16:33:08.849Z,57.01
2023-03-02T16:35:10.670Z,57.07
2023-03-02T16:37:12.213Z,57.31
2023-03-02T16:39:13.976Z,57.89
2023-03-02T16:41:19.311Z,58.60
2023-03-02T16:43:20.947Z,59.32
2023-03-02T16:45:22.620Z,59.38
2023-03-02T16:47:24.087Z,59.47
2023-03-02T16:49:25.699Z,60.44
2023-03-02T16:51:27.439Z,60.34
2023-03-02T16:53:29.280Z,60.87
2023-03-02T16:55:30.854Z,61.02
2023-03-02T16:57:33.879Z,60.93
2023-03-02T16:59:35.352Z,61.47
2023-03-02T17:01:38.716Z,61.95
2023-03-02T17:03:40.675Z,61.80
2023-03-02T17:05:42.290Z,62.57
2023-03-02T17:07:44.284Z,62.42
2023-03-02T17:09:45.971Z,62.03
2023-03-02T17:11:47.523Z,62.53
2023-03-02T17:13:50.401Z,62.97
2023-03-02T17:15:52.466Z,62.95
2023-03-02T17:17:54.148Z,62.99
2023-03-02T17:19:55.642Z,62.90
2023-03-02T17:21:58.424Z,63.76
2023-03-02T17:24:00.266Z,63.37
2023-03-02T17:26:02.121Z,63.43
2023-03-02T17:28:03.854Z,63.99
2023-03-02T17:30:09.271Z,63.57
2023-03-02T17:32:10.995Z,63.52
2023-03-02T17:34:12.954Z,63.57
2023-03-02T17:36:14.974Z,63.78
2023-03-02T17:38:16.892Z,63.27
2023-03-02T17:40:19.074Z,63.80
2023-03-02T17:42:20.670Z,63.26
2023-03-02T17:44:22.308Z,63.92
2023-03-02T17:46:29.083Z,63.37
2023-03-02T17:48:30.928Z,64.19
2023-03-02T17:50:32.615Z,63.95
2023-03-02T17:52:34.288Z,64.24
2023-03-02T17:54:35.939Z,64.51
2023-03-02T17:56:37.600Z,64.73
2023-03-02T17:58:45.163Z,64.93
2023-03-02T18:00:47.057Z,64.59
2023-03-02T18:02:51.085Z,64.84
2023-03-02T18:04:52.942Z,65.43
2023-03-02T18:06:54.582Z,65.56
2023-03-02T18:08:56.204Z,65.19
2023-03-02T18:10:57.866Z,65.30
2023-03-02T18:12:59.646Z,65.63
2023-03-02T18:15:01.416Z,65.99
2023-03-02T18:17:03.460Z,65.49
2023-03-02T18:19:06.831Z,65.68
2023-03-02T18:21:08.368Z,65.12
2023-03-02T18:23:10.645Z,65.92
2023-03-02T18:25:12.663Z,65.12
2023-03-02T18:27:14.505Z,65.38
2023-03-02T18:29:16.166Z,65.45
2023-03-02T18:31:18.788Z,65.76
2023-03-02T18:33:23.042Z,65.75
2023-03-02T18:35:26.251Z,65.09
2023-03-02T18:37:28.191Z,64.89
2023-03-02T18:39:30.065Z,65.27
2023-03-02T18:41:32.222Z,65.59
2023-03-02T18:43:37.533Z,65.99
2023-03-02T18:45:39.127Z,65.26
2023-03-02T18:47:40.615Z,65.38
2023-03-02T18:49:42.810Z,66.01
2023-03-02T18:51:46.015Z,66.52
2023-03-02T18:53:48.648Z,66.80
2023-03-02T18:55:50.970Z,67.29
2023-03-02T18:57:52.760Z,66.99
2023-03-02T18:59:54.707Z,67.53
2023-03-02T19:01:56.529Z,67.33
2023-03-02T19:03:58.151Z,67.67
2023-03-02T19:05:59.828Z,68.09
2023-03-02T19:08:02.748Z,68.15
2023-03-02T19:10:05.891Z,68.55
2023-03-02T19:12:07.709Z,68.67
2023-03-02T19:14:09.663Z,69.07
2023-03-02T19:16:11.422Z,68.68
2023-03-02T19:18:15.556Z,68.94
2023-03-02T19:20:19.238Z,68.73
2023-03-02T19:22:20.743Z,69.41
2023-03-02T19:24:23.660Z,69.89
2023-03-02T19:26:25.387Z,70.06
2023-03-02T19:28:27.392Z,69.41
2023-03-02T19:30:29.529Z,69.37
2023-03-02T19:32:31.181Z,69.53
2023-03-02T19:34:32.749Z,70.05
2023-03-02T19:36:34.331Z,69.71
2023-03-02T19:38:35.932Z,70.61
2023-03-02T19:40:38.918Z,70.57
2023-03-02T19:42:40.484Z,70.02
2023-03-02T19:44:42.126Z,70.02
2023-03-02T19:46:43.797Z,70.69
2023-03-02T19:48:45.410Z,70.32
2023-03-02T19:50:47.475Z,70.83
2023-03-02T19:52:49.425Z,70.76
2023-03-02T19:54:51.239Z,71.10
2023-03-02T19:56:54.619Z,70.67
2023-03-02T19:58:56.556Z,70.91
2023-03-02T20:00:58.644Z,70.61
2023-03-02T20:03:00.808Z,71.58
2023-03-02T20:05:03.124Z,71.07
2023-03-02T20:07:05.033Z,71.58
2023-03-02T20:09:07.657Z,71.85
2023-03-02T20:11:10.026Z,71.57
2023-03-02T20:13:13.368Z,71.77
2023-03-02T20:15:15.137Z,71.22
2023-03-02T20:17:17.154Z,70.99
2023-03-02T20:19:19.094Z,71.45
2023-03-02T20:21:21.110Z,71.86
2023-03-02T20:23:22.768Z,71.38
2023-03-02T20:25:24.448Z,71.43
2023-03-02T20:27:26.281Z,71.57
2023-03-02T20:29:29.427Z,72.22
2023-03-02T20:31:33.403Z,72.18
2023-03-02T20:33:38.077Z,71.62
2023-03-02T20:35:42.016Z,72.46
2023-03-02T20:37:44.936Z,72.45
2023-03-02T20:39:46.750Z,72.65
2023-03-02T20:41:48.611Z,72.25
2023-03-02T20:43:50.432Z,71.97
2023-03-02T20:45:54.298Z,72.50
2023-03-02T20:47:56.404Z,71.79
2023-03-02T20:49:58.693Z,71.85
2023-03-02T20:52:00.977Z,72.51
2023-03-02T20:54:04.187Z,72.32
2023-03-02T20:56:06.385Z,72.28
2023-03-02T20:58:09.170Z,71.66
2023-03-02T21:00:17.142Z,72.20
2023-03-02T21:02:20.662Z,72.10
2023-03-02T21:04:22.269Z,72.09
2023-03-02T21:06:23.897Z,71.85
2023-03-02T21:08:25.930Z,72.30
2023-03-02T21:10:30.146Z,72.15
2023-03-02T21:12:32.406Z,72.02
2023-03-02T21:14:35.104Z,72.01
2023-03-02T21:16:39.422Z,72.54
2023-03-02T21:18:42.542Z,72.51
2023-03-02T21:20:44.526Z,72.36
2023-03-02T21:22:46.545Z,72.43
2023-03-02T21:24:48.203Z,72.13
2023-03-02T21:26:52.084Z,72.98
2023-03-02T21:28:53.935Z,72.43
2023-03-02T21:30:55.785Z,72.41
2023-03-02T21:32:57.642Z,72.43
2023-03-02T21:35:00.952Z,72.91
2023-03-02T21:37:02.823Z,72.79
2023-03-02T21:39:05.888Z,72.48
2023-03-02T21:41:07.538Z,72.97
2023-03-02T21:43:09.880Z,72.74
2023-03-02T21:45:12.978Z,72.96
2023-03-02T21:47:15.343Z,72.68
2023-03-02T21:49:18.946Z,72.16
2023-03-02T21:54:26.291Z,72.16
2023-03-02T21:56:27.902Z,72.61
2023-03-02T21:58:29.726Z,72.01
2023-03-02T22:00:33.481Z,72.50
2023-03-02T22:02:35.063Z,72.48
2023-03-02T22:04:36.713Z,72.33
2023-03-02T22:06:38.316Z,72.24
2023-03-02T22:08:40.015Z,71.71
2023-03-02T22:10:45.008Z,71.85
2023-03-02T22:12:47.153Z,71.92
2023-03-02T22:14:48.927Z,71.90
2023-03-02T22:16:50.760Z,72.33
2023-03-02T22:18:55.658Z,71.83
2023-03-02T22:20:57.514Z,71.99
2023-03-02T22:22:59.414Z,71.55
2023-03-02T22:25:00.964Z,71.67
2023-03-02T22:27:22.218Z,70.63
2023-03-02T22:29:27.810Z,71.25
2023-03-02T22:31:29.565Z,70.92
2023-03-02T22:33:33.968Z,72.04
2023-03-02T22:35:35.617Z,71.38
2023-03-02T22:37:37.260Z,71.48
2023-03-02T22:39:41.955Z,71.65
2023-03-02T22:41:44.428Z,71.74
2023-03-02T22:43:47.518Z,72.23
2023-03-02T22:45:49.218Z,72.38
2023-03-02T22:47:54.006Z,72.23
2023-03-02T22:50:00.312Z,72.20
2023-03-02T22:52:11.620Z,72.35
2023-03-02T22:54:23.001Z,72.28
2023-03-02T22:56:29.315Z,72.36
2023-03-02T22:58:45.056Z,71.37
2023-03-02T23:00:48.454Z,72.17
2023-03-02T23:02:52.288Z,72.81
2023-03-02T23:04:53.847Z,72.85
2023-03-02T23:06:57.297Z,72.55
2023-03-02T23:09:00.490Z,72.35
2023-03-02T23:11:02.275Z,72.48
2023-03-02T23:13:04.068Z,72.74
2023-03-02T23:15:17.038Z,72.63
2023-03-02T23:17:22.294Z,72.71
2023-03-02T23:19:25.685Z,73.05
2023-03-02T23:21:33.082Z,72.63
2023-03-02T23:23:35.199Z,72.45
2023-03-02T23:25:37.131Z,72.69
2023-03-02T23:27:39.069Z,72.58
2023-03-02T23:29:40.892Z,73.25
2023-03-02T23:31:42.567Z,72.55
2023-03-02T23:33:46.274Z,73.08
2023-03-02T23:35:47.918Z,72.46
2023-03-02T23:37:50.027Z,72.25
2023-03-02T23:39:51.770Z,72.42
2023-03-02T23:41:54.025Z,72.03
2023-03-02T23:43:56.275Z,72.16
2023-03-02T23:45:57.868Z,72.07
2023-03-02T23:47:59.512Z,72.46
2023-03-02T23:50:02.547Z,72.20
2023-03-02T23:52:04.185Z,72.81
2023-03-02T23:54:06.078Z,72.09
2023-03-02T23:56:08.408Z,72.07
2023-03-02T23:58:10.143Z,72.52
